BAW279 EGLL-SBGL
Flight info
| Callsign | BAW279 |
|---|---|
| Flight time | N/A |
| Altitude | 32000 |
| Route | GASGU2J GASGU N514 ADKIK DCT JOZMA DCT GAPLI/M082F320 DCT EVBAK DCT TAMEL DCT GONAN DCT 40N017W/M082F340 35N020W DCT RIPOD/N0478F340 DCT GOBEG/M082F340 DCT BAMUX/N0485F340 DCT TARIM/N0479F360 DCT PINRU/N0478F370 UN741 NANIK/N0478F360 UN741 JOBER/N0476F380 UN741 TERIN UZ19 ANPAG UZ29 KEVOS UN401 MOLSU DIVRO1A |
| Aircraft | B772/H-SDE1E3FGHIJ3J5J6M1M2P2RWXYZ/LB1D1 |
Departure
| Time | N/A |
|---|---|
| Airport | London Heathrow Airport (EGLL) |
Arrival
| Time | 2026-04-30 10:39 |
|---|---|
| Airport | Rio Galeão – Tom Jobim International Airport (SBGL) |
| Time | Latitude | Longitude | Altitude | Speed | Heading |
|---|---|---|---|---|---|
| 2026-04-30 08:05 | -4.80768 | -38.51431 | 35682 ft | 472 kts | 180° |
| 2026-04-30 08:05 | -4.84012 | -38.51440 | 36328 ft | 469 kts | 180° |
| 2026-04-30 08:05 | -4.87320 | -38.51450 | 36767 ft | 470 kts | 180° |
| 2026-04-30 08:05 | -4.90627 | -38.51460 | 37140 ft | 472 kts | 180° |
| 2026-04-30 08:06 | -4.93904 | -38.51469 | 37557 ft | 472 kts | 180° |
| 2026-04-30 08:06 | -4.97192 | -38.51479 | 37987 ft | 471 kts | 180° |
| 2026-04-30 08:06 | -5.00511 | -38.51488 | 38352 ft | 471 kts | 180° |
| 2026-04-30 08:06 | -5.03783 | -38.51497 | 38702 ft | 472 kts | 180° |
| 2026-04-30 08:07 | -5.07102 | -38.51506 | 38947 ft | 473 kts | 180° |
| 2026-04-30 08:07 | -5.13698 | -38.51481 | 38933 ft | 471 kts | 178° |
| 2026-04-30 08:08 | -5.20264 | -38.51308 | 38930 ft | 470 kts | 178° |
| 2026-04-30 08:08 | -5.26849 | -38.51138 | 38933 ft | 470 kts | 178° |
| 2026-04-30 08:09 | -5.33445 | -38.50972 | 38931 ft | 470 kts | 178° |
| 2026-04-30 08:09 | -5.39983 | -38.50811 | 38932 ft | 468 kts | 178° |
| 2026-04-30 08:10 | -5.46541 | -38.50650 | 38931 ft | 470 kts | 178° |
| 2026-04-30 08:10 | -5.53130 | -38.50490 | 38931 ft | 470 kts | 178° |
| 2026-04-30 08:11 | -5.59713 | -38.50330 | 38934 ft | 469 kts | 178° |
| 2026-04-30 08:11 | -5.66211 | -38.50835 | 38944 ft | 469 kts | 189° |
| 2026-04-30 08:12 | -5.72662 | -38.52006 | 38939 ft | 469 kts | 190° |
| 2026-04-30 08:12 | -5.79126 | -38.53187 | 38942 ft | 469 kts | 190° |
| 2026-04-30 08:13 | -5.85579 | -38.54366 | 38948 ft | 469 kts | 190° |
| 2026-04-30 08:13 | -5.92011 | -38.55540 | 38951 ft | 468 kts | 190° |
| 2026-04-30 08:14 | -5.98463 | -38.56718 | 38947 ft | 469 kts | 190° |
| 2026-04-30 08:14 | -6.04929 | -38.57898 | 38943 ft | 469 kts | 189° |
| 2026-04-30 08:15 | -6.11368 | -38.59074 | 38945 ft | 468 kts | 189° |
| 2026-04-30 08:15 | -6.17804 | -38.60249 | 38949 ft | 468 kts | 189° |
| 2026-04-30 08:16 | -6.24224 | -38.61422 | 38955 ft | 467 kts | 189° |
| 2026-04-30 08:16 | -6.30659 | -38.62598 | 38952 ft | 468 kts | 189° |
| 2026-04-30 08:17 | -6.37114 | -38.63777 | 38957 ft | 467 kts | 189° |
| 2026-04-30 08:17 | -6.43509 | -38.64946 | 38966 ft | 467 kts | 189° |
| 2026-04-30 08:18 | -6.49925 | -38.66120 | 38967 ft | 466 kts | 189° |
| 2026-04-30 08:18 | -6.56334 | -38.67293 | 38967 ft | 465 kts | 189° |
| 2026-04-30 08:19 | -6.62727 | -38.68465 | 38968 ft | 465 kts | 189° |
| 2026-04-30 08:19 | -6.69144 | -38.69640 | 38967 ft | 465 kts | 189° |
| 2026-04-30 08:20 | -6.75518 | -38.70808 | 38969 ft | 465 kts | 189° |
| 2026-04-30 08:20 | -6.81912 | -38.71981 | 38974 ft | 465 kts | 189° |
| 2026-04-30 08:21 | -6.88273 | -38.73147 | 38981 ft | 464 kts | 189° |
| 2026-04-30 08:21 | -6.94653 | -38.74318 | 38988 ft | 462 kts | 189° |
| 2026-04-30 08:22 | -7.01005 | -38.75483 | 38995 ft | 462 kts | 189° |
| 2026-04-30 08:22 | -7.07377 | -38.76652 | 38998 ft | 463 kts | 189° |
| 2026-04-30 08:23 | -7.13776 | -38.77825 | 39002 ft | 462 kts | 189° |
| 2026-04-30 08:23 | -7.20127 | -38.78991 | 39004 ft | 462 kts | 189° |
| 2026-04-30 08:24 | -7.26470 | -38.80154 | 39001 ft | 463 kts | 189° |
| 2026-04-30 08:24 | -7.32837 | -38.81323 | 39001 ft | 462 kts | 189° |
| 2026-04-30 08:25 | -7.39205 | -38.82492 | 39001 ft | 462 kts | 189° |
| 2026-04-30 08:25 | -7.45571 | -38.83662 | 39002 ft | 461 kts | 190° |
| 2026-04-30 08:26 | -7.51877 | -38.84821 | 39001 ft | 462 kts | 190° |
| 2026-04-30 08:26 | -7.58247 | -38.85991 | 39004 ft | 462 kts | 190° |
| 2026-04-30 08:27 | -7.64599 | -38.87159 | 39007 ft | 462 kts | 190° |
| 2026-04-30 08:27 | -7.70978 | -38.88332 | 39011 ft | 463 kts | 190° |
| 2026-04-30 08:28 | -7.77350 | -38.89504 | 39016 ft | 462 kts | 190° |
| 2026-04-30 08:28 | -7.83691 | -38.90671 | 39015 ft | 463 kts | 190° |
| 2026-04-30 08:29 | -7.90039 | -38.91840 | 39019 ft | 462 kts | 190° |
| 2026-04-30 08:29 | -7.96424 | -38.93017 | 39021 ft | 460 kts | 190° |
| 2026-04-30 08:30 | -8.02794 | -38.94192 | 39025 ft | 461 kts | 190° |
| 2026-04-30 08:30 | -8.09146 | -38.95364 | 39027 ft | 463 kts | 190° |
| 2026-04-30 08:31 | -8.15462 | -38.96529 | 39032 ft | 462 kts | 190° |
| 2026-04-30 08:31 | -8.21860 | -38.97710 | 39034 ft | 463 kts | 190° |
| 2026-04-30 08:32 | -8.28191 | -38.98879 | 39032 ft | 462 kts | 190° |
| 2026-04-30 08:32 | -8.34571 | -39.00057 | 39027 ft | 463 kts | 190° |
| 2026-04-30 08:33 | -8.40945 | -39.01234 | 39023 ft | 463 kts | 190° |
| 2026-04-30 08:33 | -8.47292 | -39.02406 | 39019 ft | 462 kts | 190° |
| 2026-04-30 08:34 | -8.53654 | -39.03576 | 39014 ft | 461 kts | 190° |
| 2026-04-30 08:34 | -8.59957 | -39.04734 | 39008 ft | 462 kts | 190° |
| 2026-04-30 08:35 | -8.66323 | -39.05905 | 39000 ft | 461 kts | 190° |
| 2026-04-30 08:35 | -8.72664 | -39.07072 | 38994 ft | 462 kts | 190° |
| 2026-04-30 08:36 | -8.79043 | -39.08246 | 38994 ft | 463 kts | 190° |
| 2026-04-30 08:36 | -8.85420 | -39.09426 | 38999 ft | 464 kts | 190° |
| 2026-04-30 08:37 | -8.91754 | -39.10601 | 39001 ft | 462 kts | 190° |
| 2026-04-30 08:37 | -8.98133 | -39.11784 | 39007 ft | 461 kts | 190° |
| 2026-04-30 08:38 | -9.04443 | -39.12955 | 39010 ft | 463 kts | 190° |
| 2026-04-30 08:38 | -9.10816 | -39.14138 | 39011 ft | 462 kts | 190° |
| 2026-04-30 08:39 | -9.17139 | -39.15312 | 39016 ft | 462 kts | 190° |
| 2026-04-30 08:39 | -9.23465 | -39.16487 | 39017 ft | 462 kts | 190° |
| 2026-04-30 08:40 | -9.29806 | -39.17665 | 39018 ft | 462 kts | 190° |
| 2026-04-30 08:40 | -9.36205 | -39.18854 | 39014 ft | 464 kts | 190° |
| 2026-04-30 08:41 | -9.42535 | -39.20031 | 39016 ft | 462 kts | 190° |
| 2026-04-30 08:41 | -9.48904 | -39.21216 | 39017 ft | 462 kts | 190° |
| 2026-04-30 08:42 | -9.55241 | -39.22395 | 39019 ft | 463 kts | 190° |
| 2026-04-30 08:42 | -9.61557 | -39.23571 | 39021 ft | 461 kts | 190° |
| 2026-04-30 08:43 | -9.67887 | -39.24749 | 39020 ft | 463 kts | 190° |
| 2026-04-30 08:43 | -9.74274 | -39.25939 | 39022 ft | 463 kts | 190° |
| 2026-04-30 08:44 | -9.80632 | -39.27124 | 39021 ft | 463 kts | 190° |
| 2026-04-30 08:44 | -9.86976 | -39.28306 | 39022 ft | 463 kts | 190° |
| 2026-04-30 08:45 | -9.93333 | -39.29492 | 39021 ft | 462 kts | 189° |
| 2026-04-30 08:45 | -9.99684 | -39.30673 | 39028 ft | 463 kts | 189° |
| 2026-04-30 08:46 | -10.06032 | -39.31851 | 39024 ft | 462 kts | 189° |
| 2026-04-30 08:46 | -10.12403 | -39.33035 | 39042 ft | 463 kts | 189° |
| 2026-04-30 08:47 | -10.18781 | -39.34220 | 39041 ft | 463 kts | 189° |
| 2026-04-30 08:47 | -10.25126 | -39.35400 | 39052 ft | 463 kts | 189° |
| 2026-04-30 08:48 | -10.31468 | -39.36589 | 39048 ft | 463 kts | 189° |
| 2026-04-30 08:48 | -10.37859 | -39.37792 | 39050 ft | 464 kts | 189° |
| 2026-04-30 08:49 | -10.44211 | -39.38981 | 39050 ft | 464 kts | 189° |
| 2026-04-30 08:49 | -10.50582 | -39.40171 | 39041 ft | 464 kts | 189° |
| 2026-04-30 08:50 | -10.56955 | -39.41362 | 39046 ft | 464 kts | 189° |
| 2026-04-30 08:50 | -10.63344 | -39.42557 | 39043 ft | 463 kts | 189° |
| 2026-04-30 08:51 | -10.69690 | -39.43744 | 39040 ft | 464 kts | 189° |
| 2026-04-30 08:51 | -10.76096 | -39.44943 | 39047 ft | 465 kts | 189° |
| 2026-04-30 08:52 | -10.82454 | -39.46134 | 39049 ft | 466 kts | 188° |
| 2026-04-30 08:52 | -10.88872 | -39.47336 | 39041 ft | 466 kts | 188° |
| 2026-04-30 08:53 | -10.95267 | -39.48535 | 39041 ft | 467 kts | 188° |
| 2026-04-30 08:53 | -11.01703 | -39.49741 | 39043 ft | 467 kts | 188° |
| 2026-04-30 08:54 | -11.08108 | -39.50943 | 39046 ft | 466 kts | 188° |
| 2026-04-30 08:54 | -11.14505 | -39.52144 | 39055 ft | 466 kts | 188° |
| 2026-04-30 08:55 | -11.20893 | -39.53343 | 39059 ft | 466 kts | 188° |
| 2026-04-30 08:55 | -11.27287 | -39.54544 | 39061 ft | 466 kts | 188° |
| 2026-04-30 08:56 | -11.33688 | -39.55747 | 39059 ft | 466 kts | 188° |
| 2026-04-30 08:56 | -11.40090 | -39.56951 | 39057 ft | 467 kts | 188° |
| 2026-04-30 08:57 | -11.46522 | -39.58161 | 39056 ft | 466 kts | 188° |
| 2026-04-30 08:57 | -11.52909 | -39.59363 | 39055 ft | 465 kts | 188° |
| 2026-04-30 08:58 | -11.59273 | -39.60561 | 39053 ft | 466 kts | 188° |
| 2026-04-30 08:58 | -11.65689 | -39.61769 | 39048 ft | 465 kts | 188° |
| 2026-04-30 08:59 | -11.72061 | -39.62970 | 39048 ft | 465 kts | 188° |
| 2026-04-30 08:59 | -11.78462 | -39.64177 | 39048 ft | 466 kts | 188° |
| 2026-04-30 09:00 | -11.84891 | -39.65390 | 39040 ft | 467 kts | 188° |
| 2026-04-30 09:00 | -11.91319 | -39.66604 | 39035 ft | 468 kts | 188° |
| 2026-04-30 09:01 | -11.97742 | -39.67817 | 39032 ft | 466 kts | 188° |
| 2026-04-30 09:01 | -12.00925 | -39.68418 | 39178 ft | 470 kts | 188° |
| 2026-04-30 09:01 | -12.04154 | -39.69029 | 39705 ft | 467 kts | 188° |
| 2026-04-30 09:01 | -12.07361 | -39.69635 | 40046 ft | 466 kts | 188° |
| 2026-04-30 09:02 | -12.13762 | -39.70845 | 40030 ft | 464 kts | 188° |
| 2026-04-30 09:02 | -12.20080 | -39.72041 | 40035 ft | 463 kts | 188° |
| 2026-04-30 09:03 | -12.26429 | -39.73242 | 40045 ft | 463 kts | 188° |
| 2026-04-30 09:03 | -12.32819 | -39.74452 | 40046 ft | 463 kts | 188° |
| 2026-04-30 09:04 | -12.39142 | -39.75650 | 40046 ft | 463 kts | 188° |
| 2026-04-30 09:04 | -12.45533 | -39.76862 | 40043 ft | 464 kts | 188° |
| 2026-04-30 09:05 | -12.51879 | -39.78065 | 40042 ft | 463 kts | 188° |
| 2026-04-30 09:05 | -12.58227 | -39.79269 | 40045 ft | 464 kts | 188° |
| 2026-04-30 09:06 | -12.64607 | -39.80481 | 40050 ft | 464 kts | 188° |
| 2026-04-30 09:06 | -12.70975 | -39.81690 | 40053 ft | 464 kts | 188° |
| 2026-04-30 09:07 | -12.77321 | -39.82896 | 40056 ft | 464 kts | 188° |
| 2026-04-30 09:07 | -12.83725 | -39.84114 | 40064 ft | 466 kts | 188° |
| 2026-04-30 09:08 | -12.90071 | -39.85329 | 40069 ft | 466 kts | 188° |
| 2026-04-30 09:08 | -12.96487 | -39.86567 | 40075 ft | 467 kts | 189° |
| 2026-04-30 09:09 | -13.02879 | -39.87801 | 40076 ft | 466 kts | 189° |
| 2026-04-30 09:09 | -13.09280 | -39.89037 | 40077 ft | 466 kts | 189° |
| 2026-04-30 09:10 | -13.15680 | -39.90272 | 40084 ft | 465 kts | 189° |
| 2026-04-30 09:10 | -13.22031 | -39.91500 | 40081 ft | 465 kts | 189° |
| 2026-04-30 09:11 | -13.28406 | -39.92732 | 40080 ft | 465 kts | 188° |
| 2026-04-30 09:11 | -13.34789 | -39.93966 | 40087 ft | 466 kts | 189° |
| 2026-04-30 09:12 | -13.41146 | -39.95197 | 40091 ft | 466 kts | 189° |
| 2026-04-30 09:12 | -13.47556 | -39.96439 | 40094 ft | 466 kts | 189° |
| 2026-04-30 09:13 | -13.53927 | -39.97675 | 40102 ft | 466 kts | 189° |
| 2026-04-30 09:13 | -13.60286 | -39.98909 | 40097 ft | 465 kts | 189° |
| 2026-04-30 09:14 | -13.66693 | -40.00154 | 40093 ft | 465 kts | 189° |
| 2026-04-30 09:14 | -13.73019 | -40.01385 | 40095 ft | 464 kts | 189° |
| 2026-04-30 09:15 | -13.79412 | -40.02629 | 40092 ft | 465 kts | 189° |
| 2026-04-30 09:15 | -13.85785 | -40.03870 | 40093 ft | 464 kts | 189° |
| 2026-04-30 09:16 | -13.92154 | -40.05111 | 40090 ft | 465 kts | 189° |
| 2026-04-30 09:16 | -13.98501 | -40.06348 | 40084 ft | 464 kts | 189° |
| 2026-04-30 09:17 | -14.04854 | -40.07587 | 40085 ft | 464 kts | 188° |
| 2026-04-30 09:17 | -14.11185 | -40.08823 | 40092 ft | 464 kts | 189° |
| 2026-04-30 09:18 | -14.17576 | -40.10071 | 40096 ft | 464 kts | 189° |
| 2026-04-30 09:18 | -14.23922 | -40.11311 | 40103 ft | 463 kts | 189° |
| 2026-04-30 09:19 | -14.30248 | -40.12548 | 40105 ft | 463 kts | 189° |
| 2026-04-30 09:19 | -14.36611 | -40.13791 | 40106 ft | 463 kts | 189° |
| 2026-04-30 09:20 | -14.42945 | -40.15029 | 40107 ft | 463 kts | 189° |
| 2026-04-30 09:20 | -14.49301 | -40.16273 | 40110 ft | 463 kts | 189° |
| 2026-04-30 09:21 | -14.55622 | -40.17511 | 40113 ft | 463 kts | 189° |
| 2026-04-30 09:21 | -14.61977 | -40.18756 | 40112 ft | 462 kts | 189° |
| 2026-04-30 09:22 | -14.68292 | -40.19995 | 40111 ft | 462 kts | 189° |
| 2026-04-30 09:22 | -14.74648 | -40.21243 | 40112 ft | 462 kts | 189° |
| 2026-04-30 09:23 | -14.80977 | -40.22485 | 40113 ft | 462 kts | 189° |
| 2026-04-30 09:23 | -14.87295 | -40.23727 | 40117 ft | 462 kts | 189° |
| 2026-04-30 09:24 | -14.93630 | -40.24973 | 40122 ft | 462 kts | 189° |
| 2026-04-30 09:24 | -14.99942 | -40.26215 | 40121 ft | 462 kts | 189° |
| 2026-04-30 09:25 | -15.06294 | -40.27466 | 40120 ft | 462 kts | 189° |
| 2026-04-30 09:25 | -15.12612 | -40.28710 | 40115 ft | 462 kts | 189° |
| 2026-04-30 09:26 | -15.18913 | -40.29953 | 40107 ft | 461 kts | 189° |
| 2026-04-30 09:26 | -15.25221 | -40.31197 | 40099 ft | 462 kts | 189° |
| 2026-04-30 09:27 | -15.31588 | -40.32452 | 40104 ft | 462 kts | 189° |
| 2026-04-30 09:27 | -15.37930 | -40.33703 | 40107 ft | 462 kts | 189° |
| 2026-04-30 09:28 | -15.44222 | -40.34944 | 40109 ft | 462 kts | 189° |
| 2026-04-30 09:28 | -15.50593 | -40.36202 | 40117 ft | 462 kts | 189° |
| 2026-04-30 09:29 | -15.56879 | -40.37443 | 40114 ft | 462 kts | 189° |
| 2026-04-30 09:29 | -15.63206 | -40.38694 | 40117 ft | 462 kts | 189° |
| 2026-04-30 09:30 | -15.69520 | -40.39943 | 40123 ft | 461 kts | 189° |
| 2026-04-30 09:30 | -15.75870 | -40.41199 | 40118 ft | 462 kts | 189° |
| 2026-04-30 09:31 | -15.82167 | -40.42446 | 40117 ft | 462 kts | 189° |
| 2026-04-30 09:31 | -15.88501 | -40.43702 | 40118 ft | 462 kts | 189° |
| 2026-04-30 09:32 | -15.94816 | -40.44953 | 40118 ft | 462 kts | 189° |
| 2026-04-30 09:32 | -16.01137 | -40.46210 | 40112 ft | 462 kts | 189° |
| 2026-04-30 09:33 | -16.07466 | -40.47471 | 40106 ft | 462 kts | 189° |
| 2026-04-30 09:33 | -16.13790 | -40.48731 | 40114 ft | 462 kts | 189° |
| 2026-04-30 09:34 | -16.20148 | -40.49999 | 40103 ft | 462 kts | 189° |
| 2026-04-30 09:34 | -16.26459 | -40.51258 | 40104 ft | 462 kts | 190° |
| 2026-04-30 09:35 | -16.32765 | -40.52517 | 40111 ft | 462 kts | 190° |
| 2026-04-30 09:35 | -16.39084 | -40.53779 | 40117 ft | 462 kts | 190° |
| 2026-04-30 09:36 | -16.45411 | -40.55044 | 40116 ft | 462 kts | 190° |
| 2026-04-30 09:36 | -16.51729 | -40.56308 | 40123 ft | 461 kts | 190° |
| 2026-04-30 09:37 | -16.58068 | -40.57577 | 40123 ft | 462 kts | 190° |
| 2026-04-30 09:37 | -16.64404 | -40.58846 | 40125 ft | 462 kts | 190° |
| 2026-04-30 09:38 | -16.70722 | -40.60112 | 40131 ft | 462 kts | 190° |
| 2026-04-30 09:38 | -16.77025 | -40.61377 | 40131 ft | 462 kts | 190° |
| 2026-04-30 09:39 | -16.83352 | -40.62647 | 40126 ft | 462 kts | 190° |
| 2026-04-30 09:39 | -16.89688 | -40.63919 | 40121 ft | 462 kts | 190° |
| 2026-04-30 09:40 | -16.96024 | -40.65191 | 40117 ft | 462 kts | 191° |
| 2026-04-30 09:40 | -17.02322 | -40.66456 | 40112 ft | 462 kts | 191° |
| 2026-04-30 09:41 | -17.08664 | -40.67729 | 40110 ft | 461 kts | 191° |
| 2026-04-30 09:41 | -17.14976 | -40.68998 | 40115 ft | 461 kts | 191° |
| 2026-04-30 09:42 | -17.21321 | -40.70274 | 40114 ft | 462 kts | 191° |
| 2026-04-30 09:42 | -17.27634 | -40.71545 | 40113 ft | 462 kts | 191° |
| 2026-04-30 09:43 | -17.33937 | -40.72815 | 40113 ft | 461 kts | 191° |
| 2026-04-30 09:43 | -17.40258 | -40.74089 | 40115 ft | 462 kts | 191° |
| 2026-04-30 09:44 | -17.46613 | -40.75371 | 40112 ft | 462 kts | 191° |
| 2026-04-30 09:44 | -17.52922 | -40.76643 | 40110 ft | 461 kts | 191° |
| 2026-04-30 09:45 | -17.59223 | -40.77914 | 40109 ft | 462 kts | 191° |
| 2026-04-30 09:45 | -17.65561 | -40.79193 | 40110 ft | 462 kts | 191° |
| 2026-04-30 09:46 | -17.71876 | -40.80469 | 40109 ft | 462 kts | 191° |
| 2026-04-30 09:46 | -17.78198 | -40.81747 | 40107 ft | 461 kts | 191° |
| 2026-04-30 09:47 | -17.84482 | -40.83022 | 40114 ft | 462 kts | 191° |
| 2026-04-30 09:47 | -17.90840 | -40.84312 | 40116 ft | 461 kts | 191° |
| 2026-04-30 09:48 | -17.97122 | -40.85587 | 40114 ft | 462 kts | 191° |
| 2026-04-30 09:48 | -18.03483 | -40.86879 | 40120 ft | 462 kts | 192° |
| 2026-04-30 09:49 | -18.09771 | -40.88158 | 40118 ft | 463 kts | 192° |
| 2026-04-30 09:49 | -18.16113 | -40.89448 | 40124 ft | 463 kts | 192° |
| 2026-04-30 09:50 | -18.22449 | -40.90738 | 40127 ft | 461 kts | 192° |
| 2026-04-30 09:50 | -18.28777 | -40.92028 | 40130 ft | 461 kts | 192° |
| 2026-04-30 09:51 | -18.35073 | -40.93312 | 40132 ft | 462 kts | 192° |
| 2026-04-30 09:51 | -18.41387 | -40.94602 | 40135 ft | 462 kts | 192° |
| 2026-04-30 09:52 | -18.47714 | -40.95895 | 40135 ft | 462 kts | 192° |
| 2026-04-30 09:52 | -18.54038 | -40.97189 | 40138 ft | 463 kts | 192° |
| 2026-04-30 09:53 | -18.60389 | -40.98489 | 40137 ft | 464 kts | 192° |
| 2026-04-30 09:53 | -18.66764 | -40.99794 | 40137 ft | 464 kts | 192° |
| 2026-04-30 09:54 | -18.73069 | -41.01087 | 40135 ft | 464 kts | 192° |
| 2026-04-30 09:54 | -18.79425 | -41.02391 | 40136 ft | 463 kts | 192° |
| 2026-04-30 09:55 | -18.85745 | -41.03688 | 40137 ft | 464 kts | 192° |
| 2026-04-30 09:55 | -18.92110 | -41.04996 | 40139 ft | 464 kts | 192° |
| 2026-04-30 09:56 | -18.98451 | -41.06300 | 40135 ft | 464 kts | 192° |
| 2026-04-30 09:56 | -19.04796 | -41.07606 | 40136 ft | 463 kts | 192° |
| 2026-04-30 09:57 | -19.11138 | -41.08908 | 40130 ft | 463 kts | 192° |
| 2026-04-30 09:57 | -19.17480 | -41.10210 | 40130 ft | 463 kts | 193° |
| 2026-04-30 09:58 | -19.23822 | -41.11514 | 40122 ft | 463 kts | 193° |
| 2026-04-30 09:58 | -19.30204 | -41.12826 | 40122 ft | 463 kts | 193° |
| 2026-04-30 09:59 | -19.42858 | -41.15432 | 40114 ft | 463 kts | 193° |
| 2026-04-30 10:00 | -19.52374 | -41.17403 | 40109 ft | 463 kts | 193° |
| 2026-04-30 10:01 | -19.61876 | -41.19375 | 40124 ft | 463 kts | 193° |
| 2026-04-30 10:02 | -19.71358 | -41.21345 | 40132 ft | 462 kts | 193° |
| 2026-04-30 10:02 | -19.77681 | -41.22659 | 40135 ft | 462 kts | 193° |
| 2026-04-30 10:03 | -19.84025 | -41.23972 | 40136 ft | 463 kts | 193° |
| 2026-04-30 10:03 | -19.90321 | -41.25280 | 40138 ft | 463 kts | 193° |
| 2026-04-30 10:04 | -19.96642 | -41.26596 | 40143 ft | 463 kts | 194° |
| 2026-04-30 10:04 | -20.02979 | -41.27916 | 40150 ft | 463 kts | 193° |
| 2026-04-30 10:05 | -20.09324 | -41.29239 | 40156 ft | 462 kts | 193° |
| 2026-04-30 10:05 | -20.15675 | -41.30564 | 40167 ft | 463 kts | 193° |
| 2026-04-30 10:06 | -20.21995 | -41.31882 | 40175 ft | 462 kts | 194° |
| 2026-04-30 10:06 | -20.28335 | -41.33205 | 40177 ft | 463 kts | 193° |
| 2026-04-30 10:07 | -20.34635 | -41.34521 | 40163 ft | 464 kts | 194° |
| 2026-04-30 10:07 | -20.40986 | -41.35849 | 40152 ft | 464 kts | 194° |
| 2026-04-30 10:08 | -20.47333 | -41.37187 | 40138 ft | 464 kts | 194° |
| 2026-04-30 10:08 | -20.53669 | -41.38520 | 40123 ft | 464 kts | 194° |
| 2026-04-30 10:09 | -20.60000 | -41.39846 | 40111 ft | 463 kts | 194° |
| 2026-04-30 10:09 | -20.66365 | -41.41180 | 40099 ft | 464 kts | 194° |
| 2026-04-30 10:10 | -20.72705 | -41.42511 | 40089 ft | 464 kts | 194° |
| 2026-04-30 10:10 | -20.79075 | -41.43850 | 40093 ft | 464 kts | 194° |
| 2026-04-30 10:11 | -20.85398 | -41.45179 | 40101 ft | 465 kts | 194° |
| 2026-04-30 10:11 | -20.91766 | -41.46520 | 40105 ft | 466 kts | 194° |
| 2026-04-30 10:12 | -20.98126 | -41.47859 | 40122 ft | 465 kts | 194° |
| 2026-04-30 10:12 | -21.04528 | -41.49209 | 40116 ft | 465 kts | 194° |
| 2026-04-30 10:13 | -21.10846 | -41.50542 | 40096 ft | 464 kts | 194° |
| 2026-04-30 10:13 | -21.17202 | -41.51884 | 40086 ft | 465 kts | 194° |
| 2026-04-30 10:14 | -21.23549 | -41.53248 | 40068 ft | 463 kts | 197° |
| 2026-04-30 10:14 | -21.32038 | -41.57772 | 40073 ft | 452 kts | 223° |
| 2026-04-30 10:15 | -21.36396 | -41.62553 | 39700 ft | 443 kts | 230° |
| 2026-04-30 10:15 | -21.38421 | -41.64991 | 38763 ft | 443 kts | 230° |
| 2026-04-30 10:15 | -21.40456 | -41.67449 | 38123 ft | 439 kts | 231° |
| 2026-04-30 10:16 | -21.42493 | -41.69912 | 37438 ft | 436 kts | 231° |
| 2026-04-30 10:16 | -21.44496 | -41.72340 | 36730 ft | 435 kts | 231° |
| 2026-04-30 10:16 | -21.46546 | -41.74827 | 35996 ft | 456 kts | 231° |
| 2026-04-30 10:17 | -21.50813 | -41.80011 | 34400 ft | 466 kts | 231° |
| 2026-04-30 10:17 | -21.55066 | -41.85180 | 32796 ft | 465 kts | 231° |
| 2026-04-30 10:17 | -21.57215 | -41.87795 | 31975 ft | 470 kts | 231° |
| 2026-04-30 10:18 | -21.59394 | -41.90449 | 31103 ft | 475 kts | 231° |
| 2026-04-30 10:18 | -21.61564 | -41.93091 | 30488 ft | 471 kts | 232° |
| 2026-04-30 10:18 | -21.63710 | -41.95706 | 29986 ft | 467 kts | 232° |
| 2026-04-30 10:19 | -21.68014 | -42.00956 | 28822 ft | 466 kts | 232° |
| 2026-04-30 10:19 | -21.70137 | -42.03547 | 28239 ft | 462 kts | 232° |
| 2026-04-30 10:19 | -21.72247 | -42.06123 | 27655 ft | 458 kts | 232° |
| 2026-04-30 10:19 | -21.74352 | -42.08695 | 27074 ft | 454 kts | 232° |
| 2026-04-30 10:20 | -21.76417 | -42.11219 | 26504 ft | 449 kts | 232° |
| 2026-04-30 10:20 | -21.80508 | -42.16224 | 25391 ft | 443 kts | 232° |
| 2026-04-30 10:20 | -21.82582 | -42.18709 | 24831 ft | 442 kts | 229° |
| 2026-04-30 10:21 | -21.84899 | -42.20835 | 24287 ft | 444 kts | 219° |
| 2026-04-30 10:21 | -21.87548 | -42.22609 | 23720 ft | 444 kts | 213° |
| 2026-04-30 10:21 | -21.90224 | -42.24238 | 23166 ft | 441 kts | 213° |
| 2026-04-30 10:21 | -21.92866 | -42.25835 | 22611 ft | 437 kts | 213° |
| 2026-04-30 10:22 | -21.95513 | -42.27436 | 22040 ft | 434 kts | 213° |
| 2026-04-30 10:22 | -21.98141 | -42.29024 | 21470 ft | 429 kts | 213° |
| 2026-04-30 10:22 | -22.00711 | -42.30578 | 20905 ft | 424 kts | 213° |
| 2026-04-30 10:22 | -22.03265 | -42.32123 | 20342 ft | 420 kts | 213° |
| 2026-04-30 10:23 | -22.05832 | -42.33677 | 19772 ft | 416 kts | 212° |
| 2026-04-30 10:23 | -22.08330 | -42.35189 | 19211 ft | 411 kts | 212° |
| 2026-04-30 10:23 | -22.10803 | -42.36686 | 18650 ft | 407 kts | 213° |
| 2026-04-30 10:23 | -22.13256 | -42.38173 | 18097 ft | 403 kts | 213° |
| 2026-04-30 10:24 | -22.15684 | -42.39644 | 17545 ft | 399 kts | 212° |
| 2026-04-30 10:24 | -22.18089 | -42.41102 | 17000 ft | 395 kts | 212° |
| 2026-04-30 10:24 | -22.20480 | -42.42552 | 16454 ft | 391 kts | 212° |
| 2026-04-30 10:24 | -22.22848 | -42.43989 | 15899 ft | 388 kts | 212° |
| 2026-04-30 10:25 | -22.25176 | -42.45403 | 15348 ft | 384 kts | 212° |
| 2026-04-30 10:25 | -22.27505 | -42.46817 | 14793 ft | 381 kts | 212° |
| 2026-04-30 10:25 | -22.29793 | -42.48207 | 14240 ft | 378 kts | 211° |
| 2026-04-30 10:25 | -22.32103 | -42.49611 | 13666 ft | 376 kts | 211° |
| 2026-04-30 10:26 | -22.34361 | -42.50983 | 13104 ft | 373 kts | 211° |
| 2026-04-30 10:26 | -22.36609 | -42.52350 | 12559 ft | 370 kts | 211° |
| 2026-04-30 10:26 | -22.38856 | -42.53717 | 11994 ft | 367 kts | 211° |
| 2026-04-30 10:26 | -22.41065 | -42.55062 | 11436 ft | 365 kts | 211° |
| 2026-04-30 10:27 | -22.43263 | -42.56400 | 10908 ft | 361 kts | 210° |
| 2026-04-30 10:27 | -22.45417 | -42.57711 | 10748 ft | 346 kts | 211° |
| 2026-04-30 10:27 | -22.47446 | -42.58947 | 10657 ft | 330 kts | 211° |
| 2026-04-30 10:27 | -22.49438 | -42.60160 | 10533 ft | 317 kts | 211° |
| 2026-04-30 10:28 | -22.51337 | -42.61318 | 10402 ft | 306 kts | 211° |
| 2026-04-30 10:28 | -22.53160 | -42.62430 | 10260 ft | 296 kts | 211° |
| 2026-04-30 10:28 | -22.54921 | -42.63504 | 10140 ft | 286 kts | 211° |
| 2026-04-30 10:28 | -22.56621 | -42.64542 | 10007 ft | 278 kts | 211° |
| 2026-04-30 10:29 | -22.58317 | -42.65577 | 9684 ft | 277 kts | 211° |
| 2026-04-30 10:29 | -22.60007 | -42.66609 | 9343 ft | 278 kts | 211° |
| 2026-04-30 10:29 | -22.61682 | -42.67633 | 9001 ft | 278 kts | 211° |
| 2026-04-30 10:29 | -22.63383 | -42.68672 | 8667 ft | 278 kts | 211° |
| 2026-04-30 10:30 | -22.65012 | -42.69799 | 8336 ft | 276 kts | 224° |
| 2026-04-30 10:30 | -22.66095 | -42.71469 | 8024 ft | 271 kts | 247° |
| 2026-04-30 10:30 | -22.66730 | -42.73368 | 7732 ft | 269 kts | 253° |
| 2026-04-30 10:30 | -22.67263 | -42.75337 | 7429 ft | 268 kts | 255° |
| 2026-04-30 10:31 | -22.67758 | -42.77262 | 7133 ft | 267 kts | 255° |
| 2026-04-30 10:31 | -22.68251 | -42.79186 | 7035 ft | 261 kts | 255° |
| 2026-04-30 10:31 | -22.68741 | -42.81102 | 6981 ft | 271 kts | 255° |
| 2026-04-30 10:31 | -22.69254 | -42.83107 | 6626 ft | 275 kts | 256° |
| 2026-04-30 10:32 | -22.69758 | -42.85077 | 6494 ft | 267 kts | 256° |
| 2026-04-30 10:32 | -22.70254 | -42.87015 | 6165 ft | 267 kts | 256° |
| 2026-04-30 10:32 | -22.70754 | -42.88971 | 5854 ft | 266 kts | 256° |
| 2026-04-30 10:32 | -22.71241 | -42.90877 | 5556 ft | 265 kts | 256° |
| 2026-04-30 10:33 | -22.71736 | -42.92817 | 5257 ft | 263 kts | 256° |
| 2026-04-30 10:33 | -22.72223 | -42.94723 | 5043 ft | 258 kts | 256° |
| 2026-04-30 10:33 | -22.72738 | -42.96523 | 4997 ft | 247 kts | 253° |
| 2026-04-30 10:33 | -22.73175 | -42.98314 | 4676 ft | 241 kts | 258° |
| 2026-04-30 10:34 | -22.73553 | -43.00045 | 4330 ft | 228 kts | 258° |
| 2026-04-30 10:34 | -22.73931 | -43.01638 | 4031 ft | 209 kts | 257° |
| 2026-04-30 10:34 | -22.74313 | -43.03122 | 3756 ft | 199 kts | 256° |
| 2026-04-30 10:34 | -22.74700 | -43.04559 | 3477 ft | 198 kts | 255° |
| 2026-04-30 10:35 | -22.75088 | -43.06000 | 3213 ft | 200 kts | 255° |
| 2026-04-30 10:35 | -22.75467 | -43.07430 | 2922 ft | 198 kts | 255° |
| 2026-04-30 10:35 | -22.75846 | -43.08869 | 2631 ft | 193 kts | 256° |
| 2026-04-30 10:35 | -22.76205 | -43.10241 | 2326 ft | 188 kts | 256° |
| 2026-04-30 10:36 | -22.76557 | -43.11585 | 2065 ft | 179 kts | 256° |
| 2026-04-30 10:36 | -22.76881 | -43.12823 | 1816 ft | 163 kts | 256° |
| 2026-04-30 10:36 | -22.77170 | -43.13931 | 1613 ft | 140 kts | 256° |
| 2026-04-30 10:36 | -22.77430 | -43.14928 | 1410 ft | 134 kts | 256° |
| 2026-04-30 10:37 | -22.77680 | -43.15892 | 1216 ft | 131 kts | 256° |
| 2026-04-30 10:37 | -22.77928 | -43.16847 | 1021 ft | 131 kts | 256° |
| 2026-04-30 10:37 | -22.78171 | -43.17790 | 827 ft | 130 kts | 256° |
| 2026-04-30 10:37 | -22.78417 | -43.18739 | 623 ft | 128 kts | 255° |
| 2026-04-30 10:38 | -22.78669 | -43.19659 | 443 ft | 127 kts | 255° |
| 2026-04-30 10:38 | -22.78908 | -43.20579 | 290 ft | 127 kts | 256° |
| 2026-04-30 10:38 | -22.79149 | -43.21507 | 141 ft | 127 kts | 255° |
| 2026-04-30 10:38 | -22.79387 | -43.22420 | 38 ft | 117 kts | 256° |
| 2026-04-30 10:39 | -22.79561 | -43.23109 | 38 ft | 72 kts | 255° |
| 2026-04-30 10:39 | -22.79659 | -43.23487 | 38 ft | 37 kts | 254° |
| 2026-04-30 10:39 | -22.79717 | -43.23702 | 38 ft | 21 kts | 250° |
| 2026-04-30 10:39 | -22.79773 | -43.23857 | 38 ft | 22 kts | 241° |
| 2026-04-30 10:40 | -22.79858 | -43.23998 | 38 ft | 22 kts | 234° |
| 2026-04-30 10:40 | -22.79953 | -43.24140 | 38 ft | 23 kts | 234° |
| 2026-04-30 10:40 | -22.80047 | -43.24282 | 38 ft | 22 kts | 235° |
| 2026-04-30 10:40 | -22.80137 | -43.24419 | 38 ft | 22 kts | 235° |
| 2026-04-30 10:41 | -22.80242 | -43.24548 | 38 ft | 23 kts | 216° |
| 2026-04-30 10:41 | -22.80317 | -43.24659 | 38 ft | 15 kts | 256° |
| 2026-04-30 10:41 | -22.80345 | -43.24776 | 38 ft | 16 kts | 255° |
| 2026-04-30 10:41 | -22.80380 | -43.24901 | 38 ft | 17 kts | 253° |
| 2026-04-30 10:42 | -22.80413 | -43.25033 | 38 ft | 18 kts | 255° |
| 2026-04-30 10:42 | -22.80449 | -43.25173 | 38 ft | 19 kts | 251° |
| 2026-04-30 10:42 | -22.80512 | -43.25308 | 38 ft | 20 kts | 233° |
| 2026-04-30 10:42 | -22.80616 | -43.25422 | 38 ft | 21 kts | 218° |
| 2026-04-30 10:43 | -22.80738 | -43.25519 | 38 ft | 22 kts | 216° |
| 2026-04-30 10:43 | -22.80867 | -43.25618 | 38 ft | 23 kts | 215° |
| 2026-04-30 10:43 | -22.80992 | -43.25715 | 38 ft | 23 kts | 216° |
| 2026-04-30 10:43 | -22.81130 | -43.25821 | 38 ft | 24 kts | 214° |
| 2026-04-30 10:44 | -22.81245 | -43.25738 | 38 ft | 22 kts | 126° |
| 2026-04-30 10:44 | -22.81339 | -43.25594 | 38 ft | 23 kts | 125° |
| 2026-04-30 10:44 | -22.81436 | -43.25443 | 38 ft | 24 kts | 125° |
| 2026-04-30 10:44 | -22.81540 | -43.25289 | 38 ft | 25 kts | 126° |
| 2026-04-30 10:45 | -22.81648 | -43.25129 | 38 ft | 26 kts | 125° |
| 2026-04-30 10:45 | -22.81751 | -43.24971 | 38 ft | 22 kts | 126° |
| 2026-04-30 10:45 | -22.81845 | -43.24831 | 38 ft | 23 kts | 126° |
| 2026-04-30 10:45 | -22.81941 | -43.24684 | 38 ft | 23 kts | 117° |
| 2026-04-30 10:46 | -22.81959 | -43.24556 | 38 ft | 16 kts | 125° |
| 2026-04-30 10:46 | -22.82031 | -43.24446 | 38 ft | 18 kts | 126° |
| 2026-04-30 10:46 | -22.82090 | -43.24329 | 38 ft | 15 kts | 54° |
| 2026-04-30 10:46 | -22.82000 | -43.24256 | 38 ft | 16 kts | 35° |
| 2026-04-30 10:47 | -22.81904 | -43.24181 | 38 ft | 13 kts | 37° |
| 2026-04-30 10:47 | -22.81852 | -43.24112 | 38 ft | 8 kts | 51° |
| 2026-04-30 10:47 | -22.81827 | -43.24086 | 38 ft | 6 kts | 40° |
| 2026-04-30 10:47 | -22.81804 | -43.24066 | 38 ft | 2 kts | 36° |
| 2026-04-30 10:48 | -22.81803 | -43.24066 | 38 ft | 0 kts | 36° |